< < Back
Terminal Aerodrome Forecast


Current Version              Previous Versions:   1  2  3  4  5  6  7  8  9  

Terminal Aerodrome Forecast

955
FTUS42 KTAE 311100
TAFABY
TAF
KABY 311120Z 3112/0112 02004KT P6SM BKN250
     FM311500 09006KT P6SM SCT250=



Latest METAR

276
SAUS70 KWBC 011300 RRS
MTRABY
METAR KABY 011253Z 08004KT 10SM CLR 03/02 A3023 RMK AO2 SLP238
T00330017


USA.gov is the U.S. government's official web portal to all federal, state and local government web resources and services.